Kharkov, Ukraine
Current Conditions -  °F | °C
As of 8:30 AM on Tuesday 21 Oct 2014 (Local Time) from UKHH Reporting Station
Overcast Overcast  
Wind Chill: 54°   Ceiling: 1100
Heat Index: 54°   Visibility: 6mi
Dew Point: 48°   Wind: 11mph
Humidity: 82%   Direction: 260°W
Pressure: 29.62"   Gusts: NA
Location:  49.99°N, 36.21°E
Report Text: UKHH 210530Z 26005MPS 9999 BKN011 OVC023 12/09 Q1003 25290063 NOSIG
Loading
Personal Weather Stations






























Interactive Weather Map
Tropical Storm Tracking
New forecast layout! Learn more

10-Day Weather Forecast

Advertisements
Track Severe Weather on mobile